AWG421 LIBD-LRCV
Flight info
| Callsign | AWG421 |
|---|---|
| Flight time | 1h 1m |
| Altitude | 35000 |
| Route | BANAV DCT AIOSA DCT VELIP DCT PADGU DCT OVDOT T139 TITEK |
| Aircraft | A320/M-SDE3FGHIRWY/LB1 |
Departure
| Time | 2026-05-07 10:49 |
|---|---|
| Airport | Bari Karol Wojtyła International Airport (LIBD) |
Arrival
| Time | 2026-05-07 11:50 |
|---|---|
| Airport | Craiova International Airport (LRCV) |
| Time | Latitude | Longitude | Altitude | Speed | Heading |
|---|---|---|---|---|---|
| 2026-05-07 10:36 | 41.13540 | 16.76402 | 159 ft | 0 kts | 159° |
| 2026-05-07 10:42 | 41.13541 | 16.76401 | 159 ft | 2 kts | 159° |
| 2026-05-07 10:43 | 41.13557 | 16.76393 | 159 ft | 2 kts | 159° |
| 2026-05-07 10:43 | 41.13572 | 16.76386 | 159 ft | 2 kts | 159° |
| 2026-05-07 10:43 | 41.13587 | 16.76378 | 159 ft | 2 kts | 156° |
| 2026-05-07 10:43 | 41.13601 | 16.76368 | 159 ft | 2 kts | 131° |
| 2026-05-07 10:44 | 41.13607 | 16.76349 | 159 ft | 2 kts | 68° |
| 2026-05-07 10:44 | 41.13605 | 16.76347 | 159 ft | 2 kts | 84° |
| 2026-05-07 10:44 | 41.13607 | 16.76359 | 159 ft | 0 kts | 73° |
| 2026-05-07 10:45 | 41.13609 | 16.76363 | 159 ft | 2 kts | 71° |
| 2026-05-07 10:45 | 41.13617 | 16.76392 | 159 ft | 6 kts | 69° |
| 2026-05-07 10:45 | 41.13637 | 16.76464 | 159 ft | 10 kts | 70° |
| 2026-05-07 10:46 | 41.13680 | 16.76529 | 158 ft | 10 kts | 15° |
| 2026-05-07 10:46 | 41.13755 | 16.76553 | 158 ft | 12 kts | 353° |
| 2026-05-07 10:46 | 41.13820 | 16.76609 | 158 ft | 14 kts | 71° |
| 2026-05-07 10:46 | 41.13857 | 16.76740 | 158 ft | 17 kts | 69° |
| 2026-05-07 10:47 | 41.13898 | 16.76895 | 158 ft | 19 kts | 72° |
| 2026-05-07 10:47 | 41.13948 | 16.77066 | 158 ft | 20 kts | 73° |
| 2026-05-07 10:47 | 41.13997 | 16.77239 | 158 ft | 20 kts | 71° |
| 2026-05-07 10:47 | 41.14036 | 16.77363 | 158 ft | 15 kts | 49° |
| 2026-05-07 10:48 | 41.14141 | 16.77421 | 155 ft | 19 kts | 12° |
| 2026-05-07 10:48 | 41.14217 | 16.77339 | 148 ft | 14 kts | 235° |
| 2026-05-07 10:48 | 41.14178 | 16.77203 | 149 ft | 23 kts | 252° |
| 2026-05-07 10:48 | 41.14025 | 16.76678 | 150 ft | 96 kts | 249° |
| 2026-05-07 10:49 | 41.13722 | 16.75606 | 153 ft | 149 kts | 249° |
| 2026-05-07 10:49 | 41.13378 | 16.74297 | 775 ft | 146 kts | 245° |
| 2026-05-07 10:49 | 41.13034 | 16.73015 | 1436 ft | 150 kts | 246° |
| 2026-05-07 10:49 | 41.12653 | 16.71704 | 1984 ft | 157 kts | 244° |
| 2026-05-07 10:50 | 41.12245 | 16.70279 | 2477 ft | 172 kts | 247° |
| 2026-05-07 10:50 | 41.11812 | 16.68727 | 2980 ft | 188 kts | 247° |
| 2026-05-07 10:50 | 41.11324 | 16.67016 | 3489 ft | 206 kts | 247° |
| 2026-05-07 10:50 | 41.10890 | 16.65159 | 4051 ft | 226 kts | 263° |
| 2026-05-07 10:51 | 41.11226 | 16.62990 | 4538 ft | 256 kts | 300° |
| 2026-05-07 10:51 | 41.12570 | 16.61419 | 5298 ft | 273 kts | 335° |
| 2026-05-07 10:51 | 41.14467 | 16.61095 | 6173 ft | 284 kts | 9° |
| 2026-05-07 10:51 | 41.16308 | 16.62101 | 7056 ft | 291 kts | 32° |
| 2026-05-07 10:52 | 41.17921 | 16.63753 | 7973 ft | 296 kts | 41° |
| 2026-05-07 10:52 | 41.19431 | 16.65637 | 8874 ft | 300 kts | 44° |
| 2026-05-07 10:52 | 41.20944 | 16.67589 | 9727 ft | 306 kts | 43° |
| 2026-05-07 10:52 | 41.22523 | 16.69549 | 10353 ft | 319 kts | 41° |
| 2026-05-07 10:53 | 41.24251 | 16.71573 | 10622 ft | 343 kts | 39° |
| 2026-05-07 10:53 | 41.26134 | 16.73673 | 10914 ft | 362 kts | 38° |
| 2026-05-07 10:53 | 41.28114 | 16.75813 | 11539 ft | 370 kts | 37° |
| 2026-05-07 10:53 | 41.30155 | 16.77989 | 11939 ft | 386 kts | 37° |
| 2026-05-07 10:54 | 41.32311 | 16.80283 | 12076 ft | 407 kts | 37° |
| 2026-05-07 10:54 | 41.34573 | 16.82696 | 12322 ft | 423 kts | 37° |
| 2026-05-07 10:54 | 41.36900 | 16.85128 | 13009 ft | 426 kts | 33° |
| 2026-05-07 10:54 | 41.39470 | 16.87039 | 13814 ft | 424 kts | 21° |
| 2026-05-07 10:55 | 41.42254 | 16.88442 | 14258 ft | 432 kts | 18° |
| 2026-05-07 10:55 | 41.45089 | 16.89806 | 14894 ft | 433 kts | 18° |
| 2026-05-07 10:55 | 41.47926 | 16.91162 | 15628 ft | 433 kts | 18° |
| 2026-05-07 10:55 | 41.50757 | 16.92511 | 16393 ft | 431 kts | 17° |
| 2026-05-07 10:56 | 41.53596 | 16.93845 | 16938 ft | 437 kts | 16° |
| 2026-05-07 10:56 | 41.56538 | 16.95091 | 17109 ft | 449 kts | 14° |
| 2026-05-07 10:56 | 41.59560 | 16.96244 | 17608 ft | 452 kts | 13° |
| 2026-05-07 10:56 | 41.62594 | 16.97339 | 18279 ft | 451 kts | 13° |
| 2026-05-07 10:57 | 41.65624 | 16.98416 | 18915 ft | 449 kts | 13° |
| 2026-05-07 10:57 | 41.68669 | 16.99510 | 19186 ft | 459 kts | 13° |
| 2026-05-07 10:57 | 41.71713 | 17.00932 | 19422 ft | 469 kts | 23° |
| 2026-05-07 10:57 | 41.74523 | 17.03163 | 19879 ft | 473 kts | 35° |
| 2026-05-07 10:58 | 41.77028 | 17.06019 | 20395 ft | 474 kts | 40° |
| 2026-05-07 10:58 | 41.79487 | 17.08955 | 20928 ft | 473 kts | 40° |
| 2026-05-07 10:58 | 41.81950 | 17.11886 | 21443 ft | 473 kts | 40° |
| 2026-05-07 10:58 | 41.84414 | 17.14808 | 21938 ft | 474 kts | 39° |
| 2026-05-07 10:59 | 41.86914 | 17.17768 | 22087 ft | 482 kts | 39° |
| 2026-05-07 10:59 | 41.89446 | 17.20770 | 22221 ft | 489 kts | 39° |
| 2026-05-07 10:59 | 41.91980 | 17.23787 | 22354 ft | 496 kts | 40° |
| 2026-05-07 10:59 | 41.94526 | 17.26966 | 22486 ft | 502 kts | 42° |
| 2026-05-07 11:00 | 41.97008 | 17.30295 | 22685 ft | 506 kts | 44° |
| 2026-05-07 11:00 | 41.99427 | 17.33733 | 23019 ft | 507 kts | 45° |
| 2026-05-07 11:00 | 42.01813 | 17.37219 | 23394 ft | 507 kts | 45° |
| 2026-05-07 11:00 | 42.04199 | 17.40714 | 23769 ft | 507 kts | 45° |
| 2026-05-07 11:01 | 42.06600 | 17.44192 | 24120 ft | 506 kts | 45° |
| 2026-05-07 11:01 | 42.09013 | 17.47635 | 24491 ft | 505 kts | 44° |
| 2026-05-07 11:01 | 42.11436 | 17.51050 | 24877 ft | 504 kts | 44° |
| 2026-05-07 11:01 | 42.13860 | 17.54453 | 25258 ft | 503 kts | 44° |
| 2026-05-07 11:02 | 42.16281 | 17.57858 | 25667 ft | 502 kts | 44° |
| 2026-05-07 11:02 | 42.18694 | 17.61260 | 26089 ft | 501 kts | 44° |
| 2026-05-07 11:02 | 42.21094 | 17.64648 | 26516 ft | 500 kts | 44° |
| 2026-05-07 11:02 | 42.23461 | 17.67999 | 26942 ft | 499 kts | 44° |
| 2026-05-07 11:03 | 42.25845 | 17.71385 | 27390 ft | 497 kts | 44° |
| 2026-05-07 11:03 | 42.28255 | 17.74819 | 27855 ft | 496 kts | 44° |
| 2026-05-07 11:03 | 42.30631 | 17.78208 | 28114 ft | 500 kts | 44° |
| 2026-05-07 11:03 | 42.33004 | 17.81593 | 28242 ft | 504 kts | 44° |
| 2026-05-07 11:04 | 42.35364 | 17.84966 | 28376 ft | 507 kts | 44° |
| 2026-05-07 11:04 | 42.37765 | 17.88402 | 28517 ft | 510 kts | 44° |
| 2026-05-07 11:04 | 42.40203 | 17.91892 | 28707 ft | 510 kts | 44° |
| 2026-05-07 11:04 | 42.42639 | 17.95383 | 28939 ft | 510 kts | 44° |
| 2026-05-07 11:05 | 42.45073 | 17.98876 | 29193 ft | 510 kts | 44° |
| 2026-05-07 11:05 | 42.47506 | 18.02374 | 29451 ft | 509 kts | 44° |
| 2026-05-07 11:05 | 42.49932 | 18.05868 | 29724 ft | 509 kts | 45° |
| 2026-05-07 11:05 | 42.52348 | 18.09354 | 30015 ft | 508 kts | 45° |
| 2026-05-07 11:06 | 42.54764 | 18.12842 | 30289 ft | 507 kts | 45° |
| 2026-05-07 11:06 | 42.57173 | 18.16324 | 30531 ft | 506 kts | 45° |
| 2026-05-07 11:06 | 42.59579 | 18.19802 | 30781 ft | 505 kts | 45° |
| 2026-05-07 11:06 | 42.61980 | 18.23276 | 31035 ft | 504 kts | 45° |
| 2026-05-07 11:07 | 42.64381 | 18.26757 | 31277 ft | 504 kts | 45° |
| 2026-05-07 11:07 | 42.66777 | 18.30236 | 31540 ft | 502 kts | 45° |
| 2026-05-07 11:07 | 42.69162 | 18.33701 | 31799 ft | 502 kts | 45° |
| 2026-05-07 11:07 | 42.71254 | 18.36744 | 32028 ft | 501 kts | 45° |
| 2026-05-07 11:08 | 42.73433 | 18.39924 | 32284 ft | 500 kts | 45° |
| 2026-05-07 11:08 | 42.75765 | 18.43339 | 32552 ft | 499 kts | 45° |
| 2026-05-07 11:08 | 42.78133 | 18.46800 | 32834 ft | 498 kts | 45° |
| 2026-05-07 11:08 | 42.80492 | 18.50239 | 33126 ft | 497 kts | 45° |
| 2026-05-07 11:09 | 42.82854 | 18.53680 | 33428 ft | 496 kts | 45° |
| 2026-05-07 11:09 | 42.85201 | 18.57109 | 33737 ft | 495 kts | 45° |
| 2026-05-07 11:09 | 42.87547 | 18.60544 | 34030 ft | 494 kts | 45° |
| 2026-05-07 11:09 | 42.89874 | 18.63958 | 34304 ft | 493 kts | 45° |
| 2026-05-07 11:10 | 42.92213 | 18.67397 | 34570 ft | 492 kts | 45° |
| 2026-05-07 11:10 | 42.94542 | 18.70826 | 34847 ft | 491 kts | 45° |
| 2026-05-07 11:10 | 42.96858 | 18.74238 | 35077 ft | 491 kts | 45° |
| 2026-05-07 11:10 | 42.99175 | 18.77655 | 35141 ft | 490 kts | 45° |
| 2026-05-07 11:11 | 43.03805 | 18.84499 | 35142 ft | 490 kts | 45° |
| 2026-05-07 11:11 | 43.08393 | 18.91303 | 35134 ft | 490 kts | 45° |
| 2026-05-07 11:12 | 43.13011 | 18.98163 | 35127 ft | 490 kts | 45° |
| 2026-05-07 11:12 | 43.17625 | 19.05037 | 35119 ft | 491 kts | 45° |
| 2026-05-07 11:13 | 43.22239 | 19.11917 | 35117 ft | 491 kts | 45° |
| 2026-05-07 11:13 | 43.26873 | 19.18848 | 35114 ft | 492 kts | 45° |
| 2026-05-07 11:14 | 43.31506 | 19.25789 | 35107 ft | 492 kts | 45° |
| 2026-05-07 11:14 | 43.36127 | 19.32729 | 35104 ft | 492 kts | 45° |
| 2026-05-07 11:15 | 43.40663 | 19.39780 | 35096 ft | 494 kts | 54° |
| 2026-05-07 11:15 | 43.42299 | 19.43930 | 35097 ft | 495 kts | 69° |
| 2026-05-07 11:15 | 43.43200 | 19.48495 | 35100 ft | 495 kts | 78° |
| 2026-05-07 11:16 | 43.44610 | 19.57777 | 35093 ft | 496 kts | 78° |
| 2026-05-07 11:16 | 43.45997 | 19.67068 | 35095 ft | 496 kts | 78° |
| 2026-05-07 11:17 | 43.47386 | 19.76369 | 35096 ft | 496 kts | 78° |
| 2026-05-07 11:17 | 43.48775 | 19.85674 | 35098 ft | 496 kts | 78° |
| 2026-05-07 11:18 | 43.50145 | 19.95001 | 35076 ft | 498 kts | 78° |
| 2026-05-07 11:18 | 43.51515 | 20.04372 | 35077 ft | 499 kts | 78° |
| 2026-05-07 11:19 | 43.52660 | 20.12184 | 35081 ft | 500 kts | 78° |
| 2026-05-07 11:19 | 43.54030 | 20.21591 | 35088 ft | 501 kts | 78° |
| 2026-05-07 11:20 | 43.55388 | 20.31017 | 35091 ft | 501 kts | 78° |
| 2026-05-07 11:20 | 43.56737 | 20.40449 | 35071 ft | 500 kts | 78° |
| 2026-05-07 11:21 | 43.58082 | 20.49856 | 35071 ft | 500 kts | 78° |
| 2026-05-07 11:21 | 43.59424 | 20.59265 | 35070 ft | 499 kts | 79° |
| 2026-05-07 11:22 | 43.60751 | 20.68673 | 35070 ft | 499 kts | 79° |
| 2026-05-07 11:22 | 43.62064 | 20.78073 | 35073 ft | 499 kts | 79° |
| 2026-05-07 11:23 | 43.63369 | 20.87484 | 35091 ft | 500 kts | 79° |
| 2026-05-07 11:23 | 43.64674 | 20.96913 | 35102 ft | 500 kts | 79° |
| 2026-05-07 11:24 | 43.65962 | 21.06344 | 35110 ft | 500 kts | 79° |
| 2026-05-07 11:24 | 43.67249 | 21.15779 | 35109 ft | 500 kts | 79° |
| 2026-05-07 11:25 | 43.68535 | 21.25215 | 35111 ft | 499 kts | 79° |
| 2026-05-07 11:25 | 43.69809 | 21.34651 | 35115 ft | 499 kts | 79° |
| 2026-05-07 11:26 | 43.71072 | 21.44087 | 35118 ft | 499 kts | 79° |
| 2026-05-07 11:26 | 43.72326 | 21.53534 | 35123 ft | 500 kts | 79° |
| 2026-05-07 11:27 | 43.73576 | 21.62988 | 35126 ft | 500 kts | 79° |
| 2026-05-07 11:27 | 43.74814 | 21.72440 | 35099 ft | 498 kts | 79° |
| 2026-05-07 11:28 | 43.76037 | 21.81871 | 35103 ft | 498 kts | 79° |
| 2026-05-07 11:28 | 43.77254 | 21.91303 | 35104 ft | 498 kts | 79° |
| 2026-05-07 11:29 | 43.78475 | 22.00740 | 35109 ft | 498 kts | 79° |
| 2026-05-07 11:29 | 43.79692 | 22.10178 | 35109 ft | 499 kts | 79° |
| 2026-05-07 11:30 | 43.80880 | 22.19572 | 35119 ft | 499 kts | 79° |
| 2026-05-07 11:30 | 43.82065 | 22.29056 | 35107 ft | 498 kts | 79° |
| 2026-05-07 11:31 | 43.82649 | 22.33706 | 35100 ft | 485 kts | 79° |
| 2026-05-07 11:31 | 43.83223 | 22.38278 | 35101 ft | 480 kts | 79° |
| 2026-05-07 11:31 | 43.84353 | 22.47362 | 35101 ft | 478 kts | 79° |
| 2026-05-07 11:32 | 43.86026 | 22.60976 | 34196 ft | 482 kts | 84° |
| 2026-05-07 11:32 | 43.86590 | 22.65595 | 33172 ft | 489 kts | 82° |
| 2026-05-07 11:33 | 43.87159 | 22.70268 | 32112 ft | 494 kts | 82° |
| 2026-05-07 11:33 | 43.87728 | 22.74969 | 31074 ft | 498 kts | 81° |
| 2026-05-07 11:33 | 43.88303 | 22.79728 | 29841 ft | 502 kts | 81° |
| 2026-05-07 11:33 | 43.88883 | 22.84517 | 28596 ft | 504 kts | 81° |
| 2026-05-07 11:34 | 43.89459 | 22.89269 | 27966 ft | 494 kts | 81° |
| 2026-05-07 11:34 | 43.90022 | 22.93942 | 27171 ft | 489 kts | 81° |
| 2026-05-07 11:34 | 43.90572 | 22.98557 | 26415 ft | 483 kts | 81° |
| 2026-05-07 11:34 | 43.91114 | 23.03125 | 25666 ft | 477 kts | 81° |
| 2026-05-07 11:35 | 43.91651 | 23.07653 | 24912 ft | 473 kts | 82° |
| 2026-05-07 11:35 | 43.92183 | 23.12145 | 24171 ft | 468 kts | 82° |
| 2026-05-07 11:35 | 43.92708 | 23.16584 | 23397 ft | 464 kts | 82° |
| 2026-05-07 11:35 | 43.93224 | 23.20981 | 22646 ft | 458 kts | 82° |
| 2026-05-07 11:36 | 43.93729 | 23.25302 | 21957 ft | 451 kts | 82° |
| 2026-05-07 11:36 | 43.94223 | 23.29555 | 21286 ft | 444 kts | 82° |
| 2026-05-07 11:36 | 43.94709 | 23.33770 | 20644 ft | 438 kts | 82° |
| 2026-05-07 11:36 | 43.95185 | 23.37923 | 20026 ft | 433 kts | 82° |
| 2026-05-07 11:37 | 43.95656 | 23.42030 | 19426 ft | 428 kts | 82° |
| 2026-05-07 11:37 | 43.96121 | 23.46098 | 18830 ft | 425 kts | 82° |
| 2026-05-07 11:37 | 43.96576 | 23.50067 | 18216 ft | 423 kts | 82° |
| 2026-05-07 11:37 | 43.97039 | 23.54104 | 17565 ft | 420 kts | 82° |
| 2026-05-07 11:38 | 43.97500 | 23.58130 | 16942 ft | 416 kts | 82° |
| 2026-05-07 11:38 | 43.97952 | 23.62092 | 16304 ft | 413 kts | 82° |
| 2026-05-07 11:38 | 43.98395 | 23.65971 | 15660 ft | 411 kts | 82° |
| 2026-05-07 11:38 | 43.98837 | 23.69867 | 15007 ft | 408 kts | 82° |
| 2026-05-07 11:39 | 43.99272 | 23.73754 | 14338 ft | 406 kts | 82° |
| 2026-05-07 11:39 | 43.99699 | 23.77602 | 13771 ft | 400 kts | 83° |
| 2026-05-07 11:39 | 44.00122 | 23.81421 | 13066 ft | 397 kts | 83° |
| 2026-05-07 11:39 | 44.00541 | 23.85193 | 12307 ft | 395 kts | 83° |
| 2026-05-07 11:40 | 44.00957 | 23.88926 | 11669 ft | 389 kts | 83° |
| 2026-05-07 11:40 | 44.01369 | 23.92622 | 11010 ft | 384 kts | 83° |
| 2026-05-07 11:40 | 44.01769 | 23.96232 | 10652 ft | 373 kts | 83° |
| 2026-05-07 11:40 | 44.02154 | 23.99726 | 10528 ft | 355 kts | 83° |
| 2026-05-07 11:41 | 44.02517 | 24.03044 | 10409 ft | 340 kts | 84° |
| 2026-05-07 11:41 | 44.02863 | 24.06236 | 10281 ft | 328 kts | 84° |
| 2026-05-07 11:41 | 44.03333 | 24.09282 | 10156 ft | 320 kts | 71° |
| 2026-05-07 11:41 | 44.04486 | 24.11870 | 10038 ft | 313 kts | 47° |
| 2026-05-07 11:42 | 44.06222 | 24.13650 | 9611 ft | 314 kts | 23° |
| 2026-05-07 11:42 | 44.08294 | 24.14372 | 9098 ft | 304 kts | 4° |
| 2026-05-07 11:42 | 44.10400 | 24.14655 | 8450 ft | 303 kts | 4° |
| 2026-05-07 11:42 | 44.12486 | 24.14936 | 7855 ft | 299 kts | 5° |
| 2026-05-07 11:43 | 44.14539 | 24.15216 | 7258 ft | 296 kts | 5° |
| 2026-05-07 11:43 | 44.16591 | 24.15500 | 6678 ft | 293 kts | 5° |
| 2026-05-07 11:43 | 44.18625 | 24.15784 | 5927 ft | 295 kts | 5° |
| 2026-05-07 11:43 | 44.20672 | 24.16071 | 5298 ft | 293 kts | 5° |
| 2026-05-07 11:44 | 44.22640 | 24.16348 | 5092 ft | 275 kts | 5° |
| 2026-05-07 11:44 | 44.24484 | 24.16609 | 4959 ft | 256 kts | 5° |
| 2026-05-07 11:44 | 44.26192 | 24.16852 | 4856 ft | 239 kts | 4° |
| 2026-05-07 11:44 | 44.27795 | 24.17078 | 4816 ft | 224 kts | 4° |
| 2026-05-07 11:45 | 44.29311 | 24.17291 | 4655 ft | 214 kts | 4° |
| 2026-05-07 11:45 | 44.30714 | 24.17085 | 4541 ft | 195 kts | 334° |
| 2026-05-07 11:45 | 44.31696 | 24.15989 | 4382 ft | 172 kts | 302° |
| 2026-05-07 11:45 | 44.32102 | 24.14526 | 4123 ft | 155 kts | 275° |
| 2026-05-07 11:46 | 44.32104 | 24.13080 | 3869 ft | 143 kts | 268° |
| 2026-05-07 11:46 | 44.32090 | 24.11706 | 3634 ft | 140 kts | 269° |
| 2026-05-07 11:46 | 44.32077 | 24.10385 | 3453 ft | 137 kts | 267° |
| 2026-05-07 11:46 | 44.32062 | 24.09041 | 3250 ft | 137 kts | 268° |
| 2026-05-07 11:47 | 44.32047 | 24.07726 | 3053 ft | 136 kts | 268° |
| 2026-05-07 11:47 | 44.32031 | 24.06401 | 2874 ft | 135 kts | 269° |
| 2026-05-07 11:47 | 44.32016 | 24.05086 | 2703 ft | 137 kts | 269° |
| 2026-05-07 11:47 | 44.32000 | 24.03765 | 2520 ft | 136 kts | 269° |
| 2026-05-07 11:48 | 44.31985 | 24.02440 | 2339 ft | 136 kts | 268° |
| 2026-05-07 11:48 | 44.31969 | 24.01121 | 2160 ft | 137 kts | 269° |
| 2026-05-07 11:48 | 44.31953 | 23.99788 | 1977 ft | 137 kts | 269° |
| 2026-05-07 11:48 | 44.31936 | 23.98457 | 1795 ft | 137 kts | 268° |
| 2026-05-07 11:49 | 44.31920 | 23.97130 | 1614 ft | 137 kts | 269° |
| 2026-05-07 11:49 | 44.31910 | 23.95805 | 1427 ft | 136 kts | 270° |
| 2026-05-07 11:49 | 44.31885 | 23.94494 | 1237 ft | 135 kts | 269° |
| 2026-05-07 11:49 | 44.31858 | 23.93190 | 1069 ft | 133 kts | 271° |
| 2026-05-07 11:50 | 44.31852 | 23.91911 | 878 ft | 134 kts | 271° |
| 2026-05-07 11:50 | 44.31839 | 23.90592 | 702 ft | 134 kts | 271° |
| 2026-05-07 11:50 | 44.31830 | 23.89366 | 635 ft | 100 kts | 269° |
| 2026-05-07 11:50 | 44.31817 | 23.88813 | 632 ft | 24 kts | 269° |
| 2026-05-07 11:51 | 44.31814 | 23.88572 | 629 ft | 28 kts | 270° |
| 2026-05-07 11:51 | 44.31813 | 23.88277 | 632 ft | 31 kts | 270° |
| 2026-05-07 11:51 | 44.31815 | 23.87973 | 633 ft | 25 kts | 270° |
| 2026-05-07 11:51 | 44.31718 | 23.87838 | 632 ft | 21 kts | 179° |
| 2026-05-07 11:52 | 44.31558 | 23.87842 | 633 ft | 25 kts | 179° |
| 2026-05-07 11:52 | 44.31460 | 23.87825 | 630 ft | 5 kts | 239° |
| 2026-05-07 11:52 | 44.31466 | 23.87799 | 631 ft | 1 kts | 279° |
| 2026-05-07 11:52 | 44.31464 | 23.87780 | 630 ft | 0 kts | 267° |